createdAt,value
2017-04-16T00:00:19.176Z,10.67
2017-04-16T00:02:18.623Z,10.67
2017-04-16T00:03:18.644Z,10.83
2017-04-16T00:04:18.514Z,10.92
2017-04-16T00:05:34.983Z,10.78
2017-04-16T00:06:18.981Z,10.74
2017-04-16T00:07:18.576Z,10.73
2017-04-16T00:08:18.643Z,10.62
2017-04-16T00:09:23.971Z,10.66
2017-04-16T00:10:18.974Z,10.80
2017-04-16T00:11:23.934Z,10.68
2017-04-16T00:12:18.516Z,10.77
2017-04-16T00:13:18.635Z,10.91
2017-04-16T00:14:18.546Z,10.89
2017-04-16T00:15:18.656Z,10.90
2017-04-16T00:16:13.334Z,10.93
2017-04-16T00:17:19.437Z,10.94
2017-04-16T00:18:18.533Z,10.98
2017-04-16T00:19:15.389Z,11.02
2017-04-16T00:20:18.641Z,11.00
2017-04-16T00:21:25.111Z,11.01
2017-04-16T00:22:18.673Z,11.06
2017-04-16T00:23:24.012Z,11.12
2017-04-16T00:24:15.422Z,11.02
2017-04-16T00:25:18.679Z,10.93
2017-04-16T00:26:24.011Z,10.97
2017-04-16T00:27:18.674Z,10.95
2017-04-16T00:28:25.683Z,10.95
2017-04-16T00:29:15.464Z,10.85
2017-04-16T00:30:18.683Z,10.81
2017-04-16T00:31:18.701Z,10.88
2017-04-16T00:32:19.437Z,10.92
2017-04-16T00:33:18.468Z,10.94
2017-04-16T00:34:24.683Z,10.83
2017-04-16T00:35:18.683Z,10.87
2017-04-16T00:36:30.688Z,10.63
2017-04-16T00:37:18.692Z,10.72
2017-04-16T00:38:13.266Z,10.66
2017-04-16T00:39:23.691Z,10.81
2017-04-16T00:40:13.629Z,10.89
2017-04-16T00:41:18.421Z,10.84
2017-04-16T00:42:19.437Z,10.86
2017-04-16T00:43:18.632Z,10.85
2017-04-16T00:44:18.434Z,10.90
2017-04-16T00:45:13.245Z,10.85
2017-04-16T00:46:18.983Z,10.78
2017-04-16T00:47:25.433Z,10.82
2017-04-16T00:48:24.055Z,10.82
2017-04-16T00:49:18.736Z,10.87
2017-04-16T00:50:18.715Z,10.89
2017-04-16T00:51:18.674Z,10.89
2017-04-16T00:52:18.711Z,10.96
2017-04-16T00:53:30.574Z,10.79
2017-04-16T00:54:18.720Z,10.81
2017-04-16T00:55:29.719Z,10.89
2017-04-16T00:56:24.058Z,10.91
2017-04-16T00:57:18.462Z,10.91
2017-04-16T00:58:13.259Z,10.84
2017-04-16T00:59:15.108Z,10.91
2017-04-16T01:00:18.724Z,10.88
2017-04-16T01:01:15.819Z,10.96
2017-04-16T01:02:18.914Z,10.91
2017-04-16T01:03:18.859Z,10.76
2017-04-16T01:04:18.568Z,10.82
2017-04-16T01:05:18.411Z,10.84
2017-04-16T01:06:18.737Z,10.80
2017-04-16T01:07:18.544Z,10.81
2017-04-16T01:08:23.738Z,10.86
2017-04-16T01:09:36.821Z,10.85
2017-04-16T01:10:18.855Z,10.83
2017-04-16T01:11:18.721Z,10.77
2017-04-16T01:12:18.744Z,10.74
2017-04-16T01:13:18.744Z,10.72
2017-04-16T01:14:23.706Z,10.85
2017-04-16T01:15:18.483Z,10.89
2017-04-16T01:16:20.228Z,10.85
2017-04-16T01:17:15.326Z,10.79
2017-04-16T01:18:18.753Z,10.85
2017-04-16T01:19:34.959Z,10.76
2017-04-16T01:20:18.583Z,10.73
2017-04-16T01:21:29.314Z,10.68
2017-04-16T01:22:13.374Z,10.59
2017-04-16T01:23:18.714Z,10.57
2017-04-16T01:24:31.112Z,10.72
2017-04-16T01:25:21.027Z,10.71
2017-04-16T01:26:20.747Z,10.72
2017-04-16T01:27:15.483Z,10.74
2017-04-16T01:28:18.468Z,10.63
2017-04-16T01:29:20.966Z,10.51
2017-04-16T01:30:19.085Z,10.59
2017-04-16T01:31:34.507Z,10.68
2017-04-16T01:32:39.612Z,10.38
2017-04-16T01:33:45.113Z,10.45
2017-04-16T01:35:24.116Z,10.66
2017-04-16T01:36:18.786Z,10.67
2017-04-16T01:37:18.477Z,10.61
2017-04-16T01:38:18.787Z,10.55
2017-04-16T01:39:23.786Z,10.45
2017-04-16T01:40:19.439Z,10.56
2017-04-16T01:41:15.300Z,10.47
2017-04-16T01:42:18.784Z,10.53
2017-04-16T01:43:18.641Z,10.63
2017-04-16T01:44:24.155Z,10.54
2017-04-16T01:45:18.737Z,10.41
2017-04-16T01:46:19.437Z,10.46
2017-04-16T01:47:18.806Z,10.48
2017-04-16T01:48:18.136Z,10.54
2017-04-16T01:49:23.238Z,10.48
2017-04-16T01:50:18.796Z,10.40
2017-04-16T01:51:15.841Z,10.28
2017-04-16T01:52:18.377Z,10.40
2017-04-16T01:53:13.456Z,10.39
2017-04-16T01:54:18.652Z,10.55
2017-04-16T01:55:18.676Z,10.37
2017-04-16T01:56:18.857Z,10.18
2017-04-16T01:57:18.819Z,10.39
2017-04-16T01:58:18.817Z,10.43
2017-04-16T01:59:15.876Z,10.33
2017-04-16T02:00:18.819Z,10.23
2017-04-16T02:01:18.814Z,10.36
2017-04-16T02:02:24.190Z,10.51
2017-04-16T02:03:18.422Z,10.38
2017-04-16T02:04:18.816Z,10.49
2017-04-16T02:05:24.161Z,10.53
2017-04-16T02:06:18.681Z,10.56
2017-04-16T02:07:19.173Z,10.60
2017-04-16T02:08:34.441Z,10.57
2017-04-16T02:09:18.827Z,10.53
2017-04-16T02:10:19.170Z,10.55
2017-04-16T02:11:18.833Z,10.62
2017-04-16T02:12:19.171Z,10.58
2017-04-16T02:13:18.841Z,10.67
2017-04-16T02:14:24.171Z,10.73
2017-04-16T02:15:31.172Z,10.52
2017-04-16T02:16:18.842Z,10.62
2017-04-16T02:18:18.843Z,10.74
2017-04-16T02:19:23.795Z,10.72
2017-04-16T02:20:18.840Z,10.65
2017-04-16T02:21:29.414Z,10.67
2017-04-16T02:22:18.859Z,10.62
2017-04-16T02:23:19.109Z,10.67
2017-04-16T02:24:23.625Z,10.49
2017-04-16T02:25:18.861Z,10.58
2017-04-16T02:26:18.862Z,10.54
2017-04-16T02:27:22.202Z,10.57
2017-04-16T02:28:18.744Z,10.68
2017-04-16T02:29:20.615Z,10.66
2017-04-16T02:30:18.866Z,10.57
2017-04-16T02:31:26.208Z,10.34
2017-04-16T02:32:29.865Z,10.44
2017-04-16T02:33:18.868Z,10.40
2017-04-16T02:34:25.883Z,10.41
2017-04-16T02:35:18.861Z,10.54
2017-04-16T02:36:18.868Z,10.43
2017-04-16T02:37:25.415Z,10.50
2017-04-16T02:38:18.833Z,10.41
2017-04-16T02:39:29.505Z,10.48
2017-04-16T02:40:19.455Z,10.55
2017-04-16T02:41:19.718Z,10.52
2017-04-16T02:42:18.868Z,10.44
2017-04-16T02:43:23.858Z,10.49
2017-04-16T02:44:18.888Z,10.42
2017-04-16T02:45:18.721Z,10.39
2017-04-16T02:46:18.848Z,10.48
2017-04-16T02:47:27.417Z,10.52
2017-04-16T02:48:24.898Z,10.62
2017-04-16T02:49:25.810Z,10.70
2017-04-16T02:50:19.220Z,10.68
2017-04-16T02:51:18.895Z,10.55
2017-04-16T02:52:18.691Z,10.55
2017-04-16T02:53:18.799Z,10.54
2017-04-16T02:54:24.920Z,10.48
2017-04-16T02:55:16.079Z,10.49
2017-04-16T02:56:19.197Z,10.41
2017-04-16T02:57:22.390Z,10.45
2017-04-16T02:58:18.923Z,10.46
2017-04-16T02:59:29.028Z,10.54
2017-04-16T03:00:18.860Z,10.63
2017-04-16T03:01:18.923Z,10.65
2017-04-16T03:02:19.420Z,10.63
2017-04-16T03:03:18.893Z,10.69
2017-04-16T03:04:19.259Z,10.61
2017-04-16T03:05:18.941Z,10.66
2017-04-16T03:06:18.937Z,10.53
2017-04-16T03:27:22.838Z,10.62
2017-04-16T03:45:13.467Z,10.59
2017-04-16T03:46:25.691Z,10.59
2017-04-16T03:47:20.540Z,10.55
2017-04-16T03:48:20.464Z,10.56
2017-04-16T03:49:17.112Z,10.54
2017-04-16T03:50:23.329Z,10.55
2017-04-16T03:51:26.341Z,10.61
2017-04-16T03:52:31.823Z,10.59
2017-04-16T03:53:21.788Z,10.62
2017-04-16T03:55:25.817Z,10.53
2017-04-16T03:56:15.819Z,10.36
2017-04-16T03:57:26.037Z,10.24
2017-04-16T03:58:15.778Z,10.36
2017-04-16T03:59:17.360Z,10.45
2017-04-16T04:01:20.469Z,10.23
2017-04-16T04:02:20.810Z,10.21
2017-04-16T04:03:15.377Z,10.31
2017-04-16T04:04:15.483Z,10.29
2017-04-16T04:06:15.773Z,10.12
2017-04-16T04:08:20.842Z,10.29
2017-04-16T04:10:20.280Z,10.36
2017-04-16T04:11:20.467Z,10.35
2017-04-16T04:12:25.667Z,10.40
2017-04-16T04:13:20.770Z,10.26
2017-04-16T04:15:17.445Z,10.25
2017-04-16T04:16:25.611Z,10.19
2017-04-16T04:17:22.270Z,10.11
2017-04-16T04:18:31.766Z,10.22
2017-04-16T04:20:20.489Z,10.23
2017-04-16T04:21:20.453Z,10.30
2017-04-16T04:22:26.041Z,10.36
2017-04-16T04:23:28.369Z,10.23
2017-04-16T04:24:20.250Z,10.24
2017-04-16T04:25:25.390Z,10.31
2017-04-16T04:26:15.530Z,10.29
2017-04-16T04:27:15.498Z,10.14
2017-04-16T04:28:20.506Z,10.19
2017-04-16T04:29:20.405Z,10.27
2017-04-16T04:30:20.433Z,10.25
2017-04-16T04:31:20.414Z,10.14
2017-04-16T04:32:20.855Z,9.99
2017-04-16T04:33:20.568Z,10.07
2017-04-16T04:35:22.645Z,10.13
2017-04-16T04:36:15.536Z,9.85
2017-04-16T04:37:21.112Z,9.94
2017-04-16T04:38:26.413Z,10.07
2017-04-16T04:39:26.086Z,10.10
2017-04-16T04:40:20.422Z,10.06
2017-04-16T04:41:20.429Z,10.07
2017-04-16T04:42:21.116Z,10.16
2017-04-16T04:43:20.345Z,10.18
2017-04-16T04:44:15.533Z,10.09
2017-04-16T04:45:17.835Z,10.14
2017-04-16T04:46:20.246Z,10.20
2017-04-16T04:47:20.116Z,10.20
2017-04-16T04:48:20.131Z,10.16
2017-04-16T04:50:20.519Z,10.16
2017-04-16T04:51:20.609Z,10.15
2017-04-16T04:52:20.668Z,10.12
2017-04-16T04:53:21.321Z,10.11
2017-04-16T04:54:20.660Z,10.01
2017-04-16T04:55:20.595Z,10.05
2017-04-16T04:56:25.957Z,10.11
2017-04-16T04:58:25.893Z,9.91
2017-04-16T04:59:20.628Z,9.84
2017-04-16T05:01:15.852Z,9.93
2017-04-16T05:02:20.470Z,9.95
2017-04-16T05:03:25.818Z,9.97
2017-04-16T05:04:20.267Z,10.06
2017-04-16T05:05:26.120Z,9.95
2017-04-16T05:06:15.652Z,10.03
2017-04-16T05:07:20.683Z,10.05
2017-04-16T05:08:27.470Z,9.92
2017-04-16T05:09:31.351Z,9.97
2017-04-16T05:10:22.828Z,9.96
2017-04-16T05:12:21.263Z,10.00
2017-04-16T05:13:21.001Z,10.05
2017-04-16T05:14:22.757Z,10.10
2017-04-16T05:16:20.678Z,10.10
2017-04-16T05:17:25.840Z,10.08
2017-04-16T05:18:20.984Z,10.01
2017-04-16T05:19:25.470Z,10.04
2017-04-16T05:21:26.357Z,10.22
2017-04-16T05:22:27.342Z,10.26
2017-04-16T05:23:31.475Z,10.25
2017-04-16T05:24:20.361Z,10.16
2017-04-16T05:25:20.472Z,10.16
2017-04-16T05:26:20.474Z,10.17
2017-04-16T05:27:20.432Z,10.03
2017-04-16T05:28:20.864Z,10.12
2017-04-16T05:29:36.369Z,10.15
2017-04-16T05:30:22.803Z,10.23
2017-04-16T05:31:22.832Z,10.26
2017-04-16T05:32:26.385Z,10.22
2017-04-16T05:33:20.756Z,10.25
2017-04-16T05:34:20.865Z,10.25
2017-04-16T05:37:31.895Z,10.26
2017-04-16T05:38:15.509Z,10.25
2017-04-16T05:39:10.894Z,10.28
2017-04-16T05:40:22.851Z,10.26
2017-04-16T05:41:20.474Z,10.18
2017-04-16T05:42:26.001Z,10.17
2017-04-16T05:43:20.627Z,10.05
2017-04-16T05:44:20.734Z,10.08
2017-04-16T05:45:31.594Z,10.19
2017-04-16T05:47:26.134Z,10.11
2017-04-16T05:48:26.173Z,10.15
2017-04-16T05:49:22.570Z,10.19
2017-04-16T05:50:27.201Z,10.06
2017-04-16T05:54:20.489Z,10.22
2017-04-16T05:57:20.475Z,10.09
2017-04-16T05:58:16.042Z,10.10
2017-04-16T05:59:29.472Z,10.16
2017-04-16T06:00:31.519Z,10.20
2017-04-16T06:01:17.639Z,10.12
2017-04-16T06:02:21.523Z,10.04
2017-04-16T06:03:20.302Z,10.03
2017-04-16T06:04:27.147Z,10.09
2017-04-16T06:05:20.825Z,10.19
2017-04-16T06:06:16.122Z,10.28
2017-04-16T06:07:20.903Z,10.22
2017-04-16T06:08:21.029Z,10.15
2017-04-16T06:09:25.685Z,10.18
2017-04-16T06:10:24.482Z,10.19
2017-04-16T06:11:22.623Z,10.19
2017-04-16T06:12:21.484Z,10.13
2017-04-16T06:13:22.821Z,10.06
2017-04-16T06:16:25.974Z,10.15
2017-04-16T06:17:26.329Z,10.16
2017-04-16T06:18:26.213Z,10.15
2017-04-16T06:19:22.551Z,10.17
2017-04-16T06:20:22.664Z,10.13
2017-04-16T06:21:28.194Z,10.22
2017-04-16T06:22:20.444Z,10.23
2017-04-16T06:23:22.941Z,10.24
2017-04-16T06:25:21.222Z,10.25
2017-04-16T06:26:23.071Z,10.21
2017-04-16T06:27:20.428Z,10.26
2017-04-16T06:28:26.055Z,10.23
2017-04-16T06:29:21.121Z,10.16
2017-04-16T06:30:20.476Z,10.19
2017-04-16T06:31:20.471Z,10.15
2017-04-16T06:32:25.748Z,10.12
2017-04-16T06:33:20.392Z,10.13
2017-04-16T06:34:21.308Z,10.05
2017-04-16T06:35:21.253Z,10.20
2017-04-16T06:36:15.661Z,10.14
2017-04-16T06:38:20.766Z,10.37
2017-04-16T06:39:26.238Z,10.23
2017-04-16T06:40:27.268Z,10.28
2017-04-16T06:41:20.472Z,10.32
2017-04-16T06:42:23.240Z,10.18
2017-04-16T06:43:20.634Z,10.26
2017-04-16T06:44:20.470Z,10.22
2017-04-16T06:45:25.481Z,10.14
2017-04-16T06:47:24.540Z,10.31
2017-04-16T06:48:27.905Z,10.06
2017-04-16T06:49:25.572Z,10.09
2017-04-16T06:50:23.121Z,10.18
2017-04-16T06:51:22.631Z,10.19
2017-04-16T06:52:25.571Z,10.16
2017-04-16T06:53:20.671Z,10.15
2017-04-16T06:54:21.250Z,10.10
2017-04-16T06:55:20.473Z,10.08
2017-04-16T06:56:38.472Z,10.11
2017-04-16T06:57:20.476Z,10.16
2017-04-16T06:58:20.908Z,10.21
2017-04-16T06:59:21.161Z,10.23
2017-04-16T07:00:20.695Z,10.31
2017-04-16T07:01:31.900Z,10.44
2017-04-16T07:02:27.709Z,10.38
2017-04-16T07:03:20.922Z,10.30
2017-04-16T07:04:20.832Z,10.32
2017-04-16T07:05:21.359Z,10.38
2017-04-16T07:06:16.706Z,10.47
2017-04-16T07:07:26.280Z,10.25
2017-04-16T07:09:20.583Z,10.31
2017-04-16T07:10:22.810Z,10.22
2017-04-16T07:11:25.821Z,10.14
2017-04-16T07:12:22.728Z,10.15
2017-04-16T07:13:27.006Z,10.08
2017-04-16T07:14:22.426Z,10.10
2017-04-16T07:15:20.288Z,10.16
2017-04-16T07:17:21.288Z,9.97
2017-04-16T07:18:21.041Z,10.12
2017-04-16T07:19:20.521Z,10.19
2017-04-16T07:20:15.937Z,10.15
2017-04-16T07:21:26.480Z,10.13
2017-04-16T07:22:20.419Z,10.22
2017-04-16T07:23:20.608Z,10.31
2017-04-16T07:24:20.579Z,10.25
2017-04-16T07:25:20.352Z,10.33
2017-04-16T07:26:20.474Z,10.41
2017-04-16T07:27:20.814Z,10.23
2017-04-16T07:29:27.998Z,10.41
2017-04-16T07:30:21.604Z,10.40
2017-04-16T07:32:24.031Z,10.38
2017-04-16T07:34:53.268Z,10.31
2017-04-16T07:35:25.388Z,10.25
2017-04-16T07:36:18.369Z,10.28
2017-04-16T07:37:23.319Z,10.27
2017-04-16T07:38:20.981Z,10.39
2017-04-16T07:39:23.271Z,10.37
2017-04-16T07:44:20.802Z,10.06
2017-04-16T07:45:17.811Z,10.21
2017-04-16T07:46:15.500Z,10.09
2017-04-16T07:47:35.367Z,10.27
2017-04-16T07:48:21.193Z,10.08
2017-04-16T07:49:31.881Z,10.17
2017-04-16T07:50:17.799Z,10.29
2017-04-16T07:51:20.460Z,10.22
2017-04-16T07:52:20.572Z,10.31
2017-04-16T07:53:22.860Z,10.46
2017-04-16T07:55:41.209Z,10.49
2017-04-16T07:56:22.958Z,10.63
2017-04-16T07:57:27.851Z,10.67
2017-04-16T07:59:25.299Z,10.71
2017-04-16T11:26:22.156Z,10.58
2017-04-16T11:27:18.840Z,10.58
2017-04-16T11:46:27.960Z,11.08
2017-04-16T12:25:21.081Z,10.90
2017-04-16T14:32:48.935Z,10.25
2017-04-16T16:45:25.868Z,9.02
2017-04-16T16:50:17.014Z,8.90
2017-04-16T17:03:34.879Z,8.66
2017-04-16T17:06:13.585Z,8.82
2017-04-16T17:07:28.479Z,8.89
2017-04-16T17:08:22.649Z,8.87
2017-04-16T17:30:17.596Z,8.76
2017-04-16T17:31:21.992Z,8.85
2017-04-16T17:34:33.647Z,8.53
2017-04-16T17:35:16.742Z,8.40
2017-04-16T18:04:14.082Z,8.87
2017-04-16T18:34:27.969Z,8.23
2017-04-16T18:48:18.987Z,8.25
2017-04-16T18:49:30.970Z,8.24
2017-04-16T19:13:32.143Z,7.90
2017-04-16T19:15:24.457Z,8.08
2017-04-16T19:17:24.246Z,8.00
2017-04-16T19:19:23.975Z,7.85
2017-04-16T19:20:23.699Z,7.96
2017-04-16T19:31:24.209Z,7.78
2017-04-16T19:33:23.766Z,7.57
2017-04-16T19:46:24.541Z,7.89
2017-04-16T19:48:23.799Z,7.73
2017-04-16T19:49:22.213Z,7.77
2017-04-16T19:50:28.535Z,7.81
2017-04-16T19:51:24.154Z,7.86
2017-04-16T19:52:32.314Z,7.68
2017-04-16T19:53:24.168Z,7.65
2017-04-16T19:54:23.772Z,7.78
2017-04-16T19:55:23.889Z,7.55
2017-04-16T19:56:23.047Z,7.70
2017-04-16T19:57:36.345Z,7.80
2017-04-16T19:58:24.431Z,7.44
2017-04-16T19:59:23.247Z,7.50
2017-04-16T20:01:21.575Z,7.74
2017-04-16T20:02:25.744Z,7.75
2017-04-16T20:03:15.311Z,7.73
2017-04-16T20:04:21.572Z,7.83
2017-04-16T20:05:22.894Z,7.80
2017-04-16T20:06:23.127Z,7.77
2017-04-16T20:07:23.021Z,7.77
2017-04-16T20:09:23.038Z,7.60
2017-04-16T20:10:23.922Z,7.29
2017-04-16T20:11:23.268Z,7.27
2017-04-16T20:12:23.515Z,7.24
2017-04-16T20:13:24.361Z,7.49
2017-04-16T20:14:23.283Z,7.51
2017-04-16T20:15:29.450Z,7.51
2017-04-16T20:16:24.287Z,7.45
2017-04-16T20:18:24.019Z,7.34
2017-04-16T20:33:07.632Z,7.28
2017-04-16T20:34:07.397Z,7.39
2017-04-16T20:35:08.024Z,7.48
2017-04-16T20:36:08.510Z,7.44
2017-04-16T20:37:08.184Z,7.53
2017-04-16T20:38:07.780Z,7.56
2017-04-16T20:39:08.267Z,7.48
2017-04-16T20:40:07.960Z,7.45
2017-04-16T20:41:08.471Z,7.58
2017-04-16T20:42:08.908Z,7.61
2017-04-16T20:43:08.831Z,7.29
2017-04-16T20:44:08.276Z,7.42
2017-04-16T20:45:08.705Z,7.54
2017-04-16T20:46:08.127Z,7.57
2017-04-16T20:47:07.952Z,7.56
2017-04-16T20:48:07.593Z,7.48
2017-04-16T20:49:08.126Z,7.62
2017-04-16T20:50:08.551Z,7.62
2017-04-16T20:51:08.953Z,7.55
2017-04-16T20:52:07.720Z,7.45
2017-04-16T20:53:08.135Z,7.49
2017-04-16T20:54:08.579Z,7.57
2017-04-16T20:55:09.130Z,7.51
2017-04-16T20:56:08.669Z,7.50
2017-04-16T20:57:07.450Z,7.59
2017-04-16T20:58:08.035Z,7.58
2017-04-16T20:59:08.512Z,7.57
2017-04-16T21:00:09.113Z,7.56
2017-04-16T21:01:08.548Z,7.53
2017-04-16T21:02:09.061Z,7.54
2017-04-16T21:03:09.029Z,7.48
2017-04-16T21:04:08.499Z,7.59
2017-04-16T21:05:09.056Z,7.57
2017-04-16T21:06:08.507Z,7.57
2017-04-16T21:07:08.273Z,7.60
2017-04-16T21:08:08.709Z,7.55
2017-04-16T21:59:08.291Z,7.51
2017-04-16T22:00:07.831Z,7.64
2017-04-16T22:01:08.394Z,7.43
2017-04-16T22:02:07.965Z,7.39
2017-04-16T22:03:07.437Z,7.32
2017-04-16T22:04:09.397Z,7.43
2017-04-16T22:05:08.826Z,7.50
2017-04-16T22:06:07.324Z,7.49
2017-04-16T22:07:08.772Z,7.49
2017-04-16T22:08:08.255Z,7.41
2017-04-16T22:09:08.710Z,7.33
2017-04-16T22:10:08.302Z,7.49
2017-04-16T22:11:07.802Z,7.38
2017-04-16T22:12:08.250Z,7.43
2017-04-16T22:13:08.689Z,7.48
2017-04-16T22:14:08.151Z,7.56
2017-04-16T22:15:08.580Z,7.63
2017-04-16T22:16:08.166Z,7.49
2017-04-16T22:17:08.781Z,7.56
2017-04-16T22:18:08.212Z,7.59
2017-04-16T22:19:08.743Z,7.61
2017-04-16T22:20:08.211Z,7.62
2017-04-16T22:21:08.642Z,7.68
2017-04-16T22:22:07.293Z,7.71
2017-04-16T22:23:08.710Z,7.66
2017-04-16T22:24:08.145Z,7.70
2017-04-16T22:25:08.703Z,7.78
2017-04-16T22:26:07.261Z,7.81
2017-04-16T22:27:07.789Z,7.75
2017-04-16T22:28:08.216Z,7.71
2017-04-16T22:29:07.800Z,7.56
2017-04-16T22:30:08.297Z,7.56
2017-04-16T22:31:07.860Z,7.63
2017-04-16T22:32:08.476Z,7.68
2017-04-16T22:33:08.161Z,7.73
2017-04-16T22:34:08.586Z,7.77
2017-04-16T22:35:08.042Z,7.74
2017-04-16T22:36:08.483Z,7.68
2017-04-16T22:37:08.069Z,7.73
2017-04-16T22:38:08.492Z,7.75
2017-04-16T22:39:08.921Z,7.79
2017-04-16T22:40:08.391Z,7.84
2017-04-16T22:41:07.915Z,7.77
2017-04-16T22:42:08.541Z,7.78
2017-04-16T22:43:08.392Z,7.76
2017-04-16T22:44:08.842Z,7.73
2017-04-16T22:45:08.342Z,7.67
2017-04-16T22:46:08.832Z,7.65
2017-04-16T22:47:08.264Z,7.54
2017-04-16T22:48:08.673Z,7.62
2017-04-16T22:49:08.081Z,7.63
2017-04-16T22:50:09.169Z,7.57
2017-04-16T22:51:08.837Z,7.70
2017-04-16T22:52:08.368Z,7.69
2017-04-16T22:53:08.838Z,7.60
2017-04-16T22:54:08.440Z,7.66
2017-04-16T22:55:09.229Z,7.71
2017-04-16T22:56:07.722Z,7.58
2017-04-16T22:57:07.256Z,7.64
2017-04-16T22:58:08.711Z,7.61
2017-04-16T22:59:08.198Z,7.56
2017-04-16T23:00:08.613Z,7.67
2017-04-16T23:01:08.051Z,7.39
2017-04-16T23:02:08.503Z,7.47
2017-04-16T23:03:07.303Z,7.53
2017-04-16T23:04:07.930Z,7.57
2017-04-16T23:05:08.395Z,7.67
2017-04-16T23:06:08.880Z,7.46
2017-04-16T23:07:08.375Z,7.64
2017-04-16T23:08:08.824Z,7.66
2017-04-16T23:09:08.264Z,7.65
2017-04-16T23:10:08.692Z,7.72
2017-04-16T23:11:08.149Z,7.64
2017-04-16T23:12:08.897Z,7.67
2017-04-16T23:13:08.343Z,7.63
2017-04-16T23:14:09.017Z,7.63
2017-04-16T23:15:08.563Z,7.62
2017-04-16T23:16:08.110Z,7.62
2017-04-16T23:17:08.822Z,7.61
2017-04-16T23:18:08.260Z,7.76
2017-04-16T23:19:08.731Z,7.68
2017-04-16T23:20:08.214Z,7.67
2017-04-16T23:21:09.243Z,7.70
2017-04-16T23:22:07.973Z,7.69
2017-04-16T23:23:08.430Z,7.62
2017-04-16T23:24:08.903Z,7.69
2017-04-16T23:25:08.324Z,7.29
2017-04-16T23:26:08.889Z,7.39
2017-04-16T23:27:08.376Z,7.53
2017-04-16T23:28:08.956Z,7.63
2017-04-16T23:29:08.923Z,7.52
2017-04-16T23:30:08.454Z,7.62
2017-04-16T23:31:07.890Z,7.65
2017-04-16T23:32:07.444Z,7.72
2017-04-16T23:33:08.166Z,7.60
2017-04-16T23:34:07.704Z,7.54
2017-04-16T23:35:07.409Z,7.47
2017-04-16T23:36:07.958Z,7.59
2017-04-16T23:37:07.588Z,7.63
2017-04-16T23:38:07.292Z,7.68
2017-04-16T23:39:08.115Z,7.64
2017-04-16T23:40:07.596Z,7.66
2017-04-16T23:41:07.168Z,7.44
2017-04-16T23:42:07.662Z,7.53
2017-04-16T23:43:07.396Z,7.64
2017-04-16T23:44:07.929Z,7.61
2017-04-16T23:45:07.435Z,7.63
2017-04-16T23:46:08.003Z,7.65
2017-04-16T23:47:07.324Z,7.56
2017-04-16T23:48:07.900Z,7.50
2017-04-16T23:49:07.728Z,7.53
2017-04-16T23:50:07.254Z,7.53
2017-04-16T23:51:07.714Z,7.60
2017-04-16T23:52:07.233Z,7.60
2017-04-16T23:53:07.767Z,7.68
2017-04-16T23:54:07.358Z,7.59
2017-04-16T23:55:07.962Z,7.63
2017-04-16T23:56:07.560Z,7.67
2017-04-16T23:57:07.446Z,7.58
2017-04-16T23:58:07.643Z,7.65
2017-04-16T23:59:07.381Z,7.56
